createdAt,value
2022-08-24T00:00:07.321Z,19.17
2022-08-24T00:02:34.584Z,19.90
2022-08-24T00:05:01.796Z,19.35
2022-08-24T00:07:29.043Z,18.75
2022-08-24T00:09:56.310Z,18.73
2022-08-24T00:12:23.454Z,18.33
2022-08-24T00:14:50.691Z,18.17
2022-08-24T00:17:18.090Z,18.90
2022-08-24T00:19:45.246Z,19.10
2022-08-24T00:22:13.300Z,20.27
2022-08-24T00:24:40.564Z,18.80
2022-08-24T00:27:07.930Z,20.30
2022-08-24T00:29:35.214Z,19.15
2022-08-24T00:32:02.463Z,18.42
2022-08-24T00:34:30.077Z,20.38
2022-08-24T00:36:57.275Z,20.73
2022-08-24T00:39:24.476Z,20.42
2022-08-24T00:41:51.745Z,19.92
2022-08-24T00:44:19.398Z,20.30
2022-08-24T00:47:00.105Z,20.75
2022-08-24T00:49:27.246Z,19.98
2022-08-24T00:51:59.201Z,21.33
2022-08-24T00:54:26.979Z,24.85
2022-08-24T00:56:55.407Z,23.95
2022-08-24T00:59:24.547Z,22.63
2022-08-24T01:01:52.011Z,22.95
2022-08-24T01:04:20.839Z,21.77
2022-08-24T01:06:49.934Z,22.77
2022-08-24T01:09:17.342Z,22.27
2022-08-24T01:11:47.117Z,21.30
2022-08-24T01:14:14.286Z,23.63
2022-08-24T01:17:00.194Z,23.40
2022-08-24T01:19:30.126Z,24.05
2022-08-24T01:21:57.432Z,24.17
2022-08-24T01:24:24.573Z,24.67
2022-08-24T01:26:51.771Z,21.63
2022-08-24T01:29:26.426Z,24.10
2022-08-24T01:31:53.824Z,23.05
2022-08-24T01:34:21.388Z,23.80
2022-08-24T01:36:51.457Z,24.40
2022-08-24T01:39:23.049Z,24.33
2022-08-24T01:41:50.914Z,25.98
2022-08-24T01:44:18.302Z,26.23
2022-08-24T01:46:46.133Z,26.48
2022-08-24T01:49:13.466Z,26.13
2022-08-24T01:51:40.623Z,26.73
2022-08-24T01:54:07.899Z,25.83
2022-08-24T01:56:35.505Z,27.15
2022-08-24T01:59:05.319Z,26.02
2022-08-24T02:01:33.161Z,26.00
2022-08-24T02:04:00.692Z,25.73
2022-08-24T02:06:27.847Z,24.90
2022-08-24T02:08:55.971Z,25.77
2022-08-24T02:11:23.198Z,26.70
2022-08-24T02:13:50.373Z,30.10
2022-08-24T02:16:19.645Z,30.65
2022-08-24T02:18:46.873Z,32.08
2022-08-24T02:21:14.247Z,32.72
2022-08-24T02:23:41.752Z,29.50
2022-08-24T02:26:09.297Z,28.08
2022-08-24T02:28:36.643Z,29.23
2022-08-24T02:31:05.962Z,29.75
2022-08-24T02:33:33.643Z,30.67
2022-08-24T02:36:00.807Z,28.38
2022-08-24T02:38:27.986Z,30.00
2022-08-24T02:40:56.872Z,28.48
2022-08-24T02:43:24.570Z,28.15
2022-08-24T02:45:51.762Z,27.48
2022-08-24T02:48:19.116Z,28.05
2022-08-24T02:50:48.373Z,27.17
2022-08-24T02:53:15.960Z,29.17
2022-08-24T02:55:43.455Z,29.15
2022-08-24T02:58:10.944Z,28.27
2022-08-24T03:00:38.653Z,27.00
2022-08-24T03:03:06.912Z,26.27
2022-08-24T03:05:34.560Z,28.30
2022-08-24T03:08:01.744Z,28.27
2022-08-24T03:10:30.916Z,27.35
2022-08-24T03:12:59.524Z,26.30
2022-08-24T03:15:27.111Z,26.23
2022-08-24T03:17:54.336Z,26.65
2022-08-24T03:20:21.719Z,26.65
2022-08-24T03:22:48.894Z,26.58
2022-08-24T03:25:16.369Z,28.38
2022-08-24T03:27:43.525Z,27.52
2022-08-24T03:30:12.884Z,27.95
2022-08-24T03:32:41.181Z,29.92
2022-08-24T03:35:08.849Z,27.58
2022-08-24T03:37:36.026Z,28.65
2022-08-24T03:40:03.376Z,28.27
2022-08-24T03:42:32.617Z,30.00
2022-08-24T03:44:59.807Z,29.25
2022-08-24T03:47:26.994Z,30.38
2022-08-24T03:49:54.252Z,28.15
2022-08-24T03:52:21.905Z,28.40
2022-08-24T03:54:49.208Z,31.05
2022-08-24T03:57:16.410Z,28.02
2022-08-24T03:59:46.434Z,30.95
2022-08-24T04:02:14.117Z,28.50
2022-08-24T04:04:41.925Z,30.10
2022-08-24T04:07:11.482Z,30.35
2022-08-24T04:09:38.704Z,28.40
2022-08-24T04:12:05.980Z,28.70
2022-08-24T04:14:34.399Z,29.42
2022-08-24T04:17:01.806Z,31.60
2022-08-24T04:19:29.035Z,32.03
2022-08-24T04:21:59.079Z,31.08
2022-08-24T04:24:26.428Z,30.33
2022-08-24T04:26:53.647Z,32.45
2022-08-24T04:29:21.221Z,31.02
2022-08-24T04:31:48.520Z,32.88
2022-08-24T04:34:16.068Z,32.33
2022-08-24T04:36:43.651Z,32.38
2022-08-24T04:39:10.916Z,31.42
2022-08-24T04:41:38.079Z,30.20
2022-08-24T04:44:06.228Z,31.02
2022-08-24T04:46:33.388Z,31.13
2022-08-24T04:49:00.583Z,33.30
2022-08-24T04:51:29.344Z,31.77
2022-08-24T04:54:03.662Z,31.88
2022-08-24T04:56:30.833Z,34.42
2022-08-24T04:58:57.983Z,34.17
2022-08-24T05:01:26.080Z,32.22
2022-08-24T05:03:54.277Z,33.90
2022-08-24T05:06:22.358Z,35.15
2022-08-24T05:08:49.721Z,35.72
2022-08-24T05:11:17.547Z,34.88
2022-08-24T05:13:44.793Z,34.28
2022-08-24T05:16:13.846Z,35.00
2022-08-24T05:18:41.168Z,34.05
2022-08-24T05:21:08.992Z,35.08
2022-08-24T05:23:36.654Z,36.80
2022-08-24T05:26:14.382Z,35.90
2022-08-24T05:28:41.873Z,35.30
2022-08-24T05:31:16.344Z,35.78
2022-08-24T05:33:43.557Z,32.88
2022-08-24T05:36:21.259Z,35.90
2022-08-24T05:38:48.560Z,34.78
2022-08-24T05:41:16.329Z,35.42
2022-08-24T05:43:43.665Z,36.28
2022-08-24T05:46:10.894Z,37.70
2022-08-24T05:48:38.300Z,35.90
2022-08-24T05:51:05.697Z,36.30
2022-08-24T05:53:33.495Z,35.35
2022-08-24T05:56:07.264Z,36.22
2022-08-24T05:58:34.526Z,35.13
2022-08-24T06:01:06.633Z,36.38
2022-08-24T06:03:33.895Z,34.38
2022-08-24T06:06:02.586Z,34.42
2022-08-24T06:08:31.133Z,32.17
2022-08-24T06:10:58.423Z,31.85
2022-08-24T06:13:25.580Z,35.85
2022-08-24T06:16:20.429Z,35.05
2022-08-24T06:18:49.698Z,30.45
2022-08-24T06:21:17.693Z,31.45
2022-08-24T06:23:45.522Z,34.47
2022-08-24T06:26:31.943Z,33.83
2022-08-24T06:29:00.395Z,34.35
2022-08-24T06:31:27.958Z,34.28
2022-08-24T06:33:55.730Z,32.22
2022-08-24T06:36:23.189Z,33.00
2022-08-24T06:38:50.671Z,31.73
2022-08-24T06:41:17.851Z,32.38
2022-08-24T06:43:45.025Z,31.55
2022-08-24T06:46:12.627Z,30.23
2022-08-24T06:48:39.983Z,29.98
2022-08-24T06:51:13.755Z,30.20
2022-08-24T06:53:41.512Z,29.85
2022-08-24T06:56:08.795Z,31.05
2022-08-24T06:58:36.050Z,31.63
2022-08-24T07:01:13.068Z,31.75
2022-08-24T07:03:40.269Z,31.98
2022-08-24T07:06:07.697Z,29.55
2022-08-24T07:08:35.021Z,27.30
2022-08-24T07:11:02.696Z,29.73
2022-08-24T07:13:31.164Z,30.88
2022-08-24T07:15:58.504Z,29.88
2022-08-24T07:18:25.958Z,29.88
2022-08-24T07:20:54.075Z,30.60
2022-08-24T07:23:21.343Z,30.25
2022-08-24T07:25:52.120Z,28.58
2022-08-24T07:28:31.519Z,24.55
2022-08-24T07:30:59.489Z,24.60
2022-08-24T07:33:26.745Z,27.55
2022-08-24T07:35:56.276Z,27.45
2022-08-24T07:38:24.053Z,26.35
2022-08-24T07:43:42.942Z,27.23
2022-08-24T07:46:10.616Z,26.35
2022-08-24T07:48:37.855Z,25.80
2022-08-24T07:51:14.306Z,26.13
2022-08-24T07:53:53.421Z,28.73
2022-08-24T07:56:21.298Z,27.75
2022-08-24T07:58:48.515Z,34.78
2022-08-24T08:01:15.819Z,37.00
2022-08-24T08:03:43.022Z,29.48
2022-08-24T08:06:16.258Z,27.65
2022-08-24T08:08:43.786Z,28.20
2022-08-24T08:11:11.029Z,27.90
2022-08-24T08:13:38.916Z,24.63
2022-08-24T08:16:08.551Z,27.60
2022-08-24T08:18:36.230Z,27.70
2022-08-24T08:21:26.598Z,27.95
2022-08-24T08:24:12.990Z,25.08
2022-08-24T08:26:40.171Z,24.17
2022-08-24T08:29:07.666Z,26.45
2022-08-24T08:31:34.884Z,26.33
2022-08-24T08:34:02.165Z,26.20
2022-08-24T08:36:29.445Z,25.55
2022-08-24T08:38:56.768Z,26.00
2022-08-24T08:41:43.907Z,25.52
2022-08-24T08:44:17.291Z,25.02
2022-08-24T08:46:53.714Z,26.02
2022-08-24T08:49:39.531Z,27.00
2022-08-24T08:52:09.591Z,26.90
2022-08-24T08:54:45.829Z,26.38
2022-08-24T08:57:22.308Z,27.23
2022-08-24T08:59:55.722Z,26.70
2022-08-24T09:02:41.635Z,26.48
2022-08-24T09:05:27.949Z,26.63
2022-08-24T09:08:09.025Z,24.85
2022-08-24T09:10:36.257Z,27.80
2022-08-24T09:13:12.337Z,28.23
2022-08-24T09:15:45.268Z,26.42
2022-08-24T09:18:18.822Z,28.25
2022-08-24T09:20:49.418Z,25.40
2022-08-24T09:23:26.766Z,26.75
2022-08-24T09:26:04.683Z,26.75
2022-08-24T09:28:34.729Z,26.17
2022-08-24T09:31:20.167Z,26.13
2022-08-24T09:34:02.759Z,24.70
2022-08-24T09:36:35.246Z,25.55
2022-08-24T09:39:06.135Z,25.70
2022-08-24T09:41:44.508Z,25.13
2022-08-24T09:44:17.789Z,23.65
2022-08-24T09:46:54.011Z,25.50
2022-08-24T09:49:24.240Z,24.67
2022-08-24T09:51:56.446Z,24.58
2022-08-24T09:54:24.125Z,20.95
2022-08-24T09:57:09.399Z,22.58
2022-08-24T09:59:44.878Z,21.02
2022-08-24T10:02:15.978Z,20.70
2022-08-24T10:04:55.754Z,21.80
2022-08-24T10:07:32.103Z,19.95
2022-08-24T10:10:11.455Z,23.02
2022-08-24T10:12:56.310Z,20.92
2022-08-24T10:15:23.808Z,19.20
2022-08-24T10:18:06.250Z,20.15
2022-08-24T10:20:41.750Z,16.67
2022-08-24T10:23:27.785Z,17.55
2022-08-24T10:26:03.142Z,17.20
2022-08-24T10:28:50.769Z,16.60
2022-08-24T10:31:24.155Z,16.33
2022-08-24T10:33:51.379Z,16.20
2022-08-24T10:36:21.047Z,16.27
2022-08-24T10:39:39.991Z,16.05
2022-08-24T10:42:44.478Z,16.13
2022-08-24T10:45:28.761Z,16.67
2022-08-24T10:48:05.756Z,16.65
2022-08-24T10:50:36.259Z,17.63
2022-08-24T10:53:03.486Z,17.25
2022-08-24T10:55:31.512Z,16.00
2022-08-24T10:58:11.162Z,16.05
2022-08-24T11:00:38.486Z,16.75
2022-08-24T11:03:10.951Z,17.02
2022-08-24T11:05:43.147Z,15.77
2022-08-24T11:08:10.703Z,14.40
2022-08-24T11:10:38.733Z,14.23
2022-08-24T11:13:24.286Z,14.95
2022-08-24T11:15:53.605Z,13.98
2022-08-24T11:18:21.382Z,13.32
2022-08-24T11:20:49.060Z,14.00
2022-08-24T11:23:19.209Z,14.00
2022-08-24T11:25:59.644Z,13.98
2022-08-24T11:28:26.788Z,12.70
2022-08-24T11:30:53.931Z,13.30
2022-08-24T11:33:26.190Z,12.80
2022-08-24T11:35:53.360Z,13.90
2022-08-24T11:38:22.376Z,14.73
2022-08-24T11:40:57.171Z,14.50
2022-08-24T11:43:33.571Z,13.70
2022-08-24T11:46:00.746Z,13.95
2022-08-24T11:48:37.710Z,15.93
2022-08-24T11:51:05.019Z,14.45
2022-08-24T11:53:32.201Z,13.77
2022-08-24T11:56:00.293Z,13.75
2022-08-24T11:58:49.665Z,14.13
2022-08-24T12:01:24.206Z,12.55
2022-08-24T12:04:09.921Z,14.18
2022-08-24T12:06:44.377Z,13.73
2022-08-24T12:09:30.458Z,13.45
2022-08-24T12:11:57.610Z,12.45
2022-08-24T12:14:34.248Z,12.55
2022-08-24T12:17:04.286Z,13.00
2022-08-24T12:19:35.637Z,12.48
2022-08-24T12:22:04.398Z,12.45
2022-08-24T12:24:34.269Z,12.63
2022-08-24T12:27:11.508Z,12.40
2022-08-24T12:29:38.646Z,12.52
2022-08-24T12:32:07.967Z,11.95
2022-08-24T12:34:42.131Z,11.25
2022-08-24T12:37:35.968Z,12.70
2022-08-24T12:40:11.244Z,13.38
2022-08-24T12:42:51.731Z,12.57
2022-08-24T12:45:20.371Z,12.82
2022-08-24T12:47:53.517Z,12.32
2022-08-24T12:50:25.211Z,11.93
2022-08-24T12:53:13.621Z,12.68
2022-08-24T12:56:00.037Z,12.50
2022-08-24T12:58:53.831Z,12.80
2022-08-24T13:01:25.626Z,14.27
2022-08-24T13:04:16.129Z,14.52
2022-08-24T13:06:48.598Z,11.30
2022-08-24T13:09:38.422Z,16.42
2022-08-24T13:12:34.719Z,12.68
2022-08-24T13:15:20.463Z,12.30
2022-08-24T13:17:47.644Z,11.18
2022-08-24T13:20:20.816Z,11.82
2022-08-24T13:22:49.842Z,12.43
2022-08-24T13:25:40.390Z,12.20
2022-08-24T13:28:09.054Z,12.85
2022-08-24T13:30:38.622Z,12.40
2022-08-24T13:33:07.350Z,12.60
2022-08-24T13:35:55.968Z,14.60
2022-08-24T13:38:32.250Z,12.82
2022-08-24T13:41:14.453Z,13.25
2022-08-24T13:43:41.591Z,21.63
2022-08-24T13:46:14.965Z,13.68
2022-08-24T13:48:47.989Z,12.68
2022-08-24T13:51:38.577Z,15.25
2022-08-24T13:54:24.507Z,13.27
2022-08-24T13:56:58.713Z,12.48
2022-08-24T13:59:44.483Z,12.40
2022-08-24T14:02:18.392Z,12.80
2022-08-24T14:04:48.913Z,12.30
2022-08-24T14:07:31.061Z,12.75
2022-08-24T14:10:08.258Z,12.55
2022-08-24T14:12:45.071Z,13.10
2022-08-24T14:15:12.212Z,12.55
2022-08-24T14:17:55.111Z,13.65
2022-08-24T14:20:30.955Z,13.32
2022-08-24T14:23:04.227Z,14.77
2022-08-24T14:25:33.708Z,14.25
2022-08-24T14:28:00.898Z,13.57
2022-08-24T14:30:28.316Z,12.90
2022-08-24T14:32:58.321Z,13.63
2022-08-24T14:35:32.592Z,14.15
2022-08-24T14:38:18.573Z,14.02
2022-08-24T14:41:12.332Z,13.63
2022-08-24T14:43:59.740Z,14.40
2022-08-24T14:46:33.809Z,13.60
2022-08-24T14:49:04.670Z,14.15
2022-08-24T14:51:44.027Z,17.08
2022-08-24T14:54:13.937Z,14.02
2022-08-24T14:56:48.419Z,29.27
2022-08-24T14:59:37.879Z,15.57
2022-08-24T15:02:16.375Z,25.30
2022-08-24T15:04:44.150Z,44.78
2022-08-24T15:07:31.616Z,30.52
2022-08-24T15:09:59.206Z,20.23
2022-08-24T15:12:38.836Z,16.90
2022-08-24T15:15:06.079Z,23.27
2022-08-24T15:17:44.076Z,14.38
2022-08-24T15:20:29.559Z,14.55
2022-08-24T15:22:58.742Z,14.13
2022-08-24T15:25:44.638Z,14.90
2022-08-24T15:28:16.118Z,14.25
2022-08-24T15:30:47.023Z,15.32
2022-08-24T15:33:19.753Z,14.70
2022-08-24T15:35:51.829Z,13.85
2022-08-24T15:38:18.999Z,14.50
2022-08-24T15:40:46.318Z,14.15
2022-08-24T15:43:13.527Z,15.35
2022-08-24T15:45:45.817Z,14.93
2022-08-24T15:48:13.025Z,15.65
2022-08-24T15:50:44.275Z,16.70
2022-08-24T15:53:26.456Z,15.57
2022-08-24T15:55:53.615Z,14.80
2022-08-24T15:58:20.793Z,15.82
2022-08-24T16:01:06.772Z,15.85
2022-08-24T16:03:44.162Z,15.40
2022-08-24T16:06:19.317Z,16.10
2022-08-24T16:08:58.571Z,16.17
2022-08-24T16:11:30.559Z,16.33
2022-08-24T16:13:58.989Z,16.23
2022-08-24T16:16:34.442Z,16.75
2022-08-24T16:19:02.252Z,17.27
2022-08-24T16:21:55.499Z,18.02
2022-08-24T16:24:36.114Z,17.73
2022-08-24T16:27:10.633Z,19.50
2022-08-24T16:29:37.901Z,19.20
2022-08-24T16:32:22.283Z,18.73
2022-08-24T16:35:02.474Z,22.23
2022-08-24T16:37:29.697Z,23.77
2022-08-24T16:39:56.957Z,18.33
2022-08-24T16:42:28.112Z,17.98
2022-08-24T16:44:55.449Z,19.23
2022-08-24T16:47:22.645Z,19.25
2022-08-24T16:49:49.937Z,19.52
2022-08-24T16:52:17.601Z,19.50
2022-08-24T16:54:44.951Z,20.63
2022-08-24T16:57:15.766Z,18.60
2022-08-24T16:59:45.155Z,20.15
2022-08-24T17:02:12.912Z,36.45
2022-08-24T17:04:40.380Z,39.42
2022-08-24T17:07:09.027Z,35.03
2022-08-24T17:09:37.235Z,24.15
2022-08-24T17:12:04.959Z,21.80
2022-08-24T17:14:32.144Z,19.45
2022-08-24T17:16:59.577Z,22.80
2022-08-24T17:19:26.913Z,21.75
2022-08-24T17:21:56.261Z,26.38
2022-08-24T17:24:23.573Z,23.20
2022-08-24T17:26:53.434Z,20.42
2022-08-24T17:29:20.765Z,20.95
2022-08-24T17:31:49.814Z,21.08
2022-08-24T17:34:17.238Z,21.67
2022-08-24T17:36:44.845Z,20.35
2022-08-24T17:39:12.255Z,19.95
2022-08-24T17:41:39.495Z,20.75
2022-08-24T17:44:07.636Z,21.92
2022-08-24T17:46:35.356Z,22.25
2022-08-24T17:49:02.531Z,21.52
2022-08-24T17:51:29.726Z,22.67
2022-08-24T17:53:56.962Z,22.73
2022-08-24T17:56:24.112Z,21.80
2022-08-24T17:59:10.031Z,22.80
2022-08-24T18:01:38.370Z,21.67
2022-08-24T18:04:05.657Z,21.27
2022-08-24T18:06:32.908Z,20.95
2022-08-24T18:09:01.269Z,25.58
2022-08-24T18:11:28.453Z,19.27
2022-08-24T18:13:55.635Z,24.50
2022-08-24T18:16:23.659Z,21.65
2022-08-24T18:18:51.573Z,21.88
2022-08-24T18:21:20.229Z,22.15
2022-08-24T18:23:48.430Z,23.25
2022-08-24T18:26:25.863Z,23.92
2022-08-24T18:28:55.079Z,22.00
2022-08-24T18:31:22.288Z,22.42
2022-08-24T18:33:49.906Z,21.73
2022-08-24T18:36:17.362Z,23.45
2022-08-24T18:38:44.553Z,25.95
2022-08-24T18:41:11.806Z,29.30
2022-08-24T18:43:38.951Z,32.50
2022-08-24T18:46:06.286Z,26.58
2022-08-24T18:48:33.610Z,29.20
2022-08-24T18:51:00.841Z,31.90
2022-08-24T18:53:28.075Z,28.92
2022-08-24T18:55:55.323Z,29.25
2022-08-24T18:58:22.545Z,28.85
2022-08-24T19:00:50.914Z,28.33
2022-08-24T19:03:19.253Z,28.83
2022-08-24T19:05:46.568Z,27.70
2022-08-24T19:08:13.857Z,28.10
2022-08-24T19:10:41.069Z,30.10
2022-08-24T19:13:15.146Z,27.65
2022-08-24T19:15:42.816Z,28.08
2022-08-24T19:18:11.232Z,28.55
2022-08-24T19:20:47.207Z,27.60
2022-08-24T19:23:18.254Z,27.35
2022-08-24T19:25:45.527Z,28.08
2022-08-24T19:28:12.731Z,26.20
2022-08-24T19:31:26.500Z,29.17
2022-08-24T19:33:53.710Z,29.88
2022-08-24T19:36:22.393Z,28.67
2022-08-24T19:38:49.551Z,28.77
2022-08-24T19:41:17.520Z,29.23
2022-08-24T19:44:03.506Z,31.90
2022-08-24T19:46:31.308Z,29.25
2022-08-24T19:48:58.480Z,32.13
2022-08-24T19:51:26.684Z,30.90
2022-08-24T19:53:53.886Z,29.75
2022-08-24T19:56:21.048Z,29.42
2022-08-24T19:58:51.889Z,33.67
2022-08-24T20:01:23.119Z,32.40
2022-08-24T20:03:50.578Z,34.60
2022-08-24T20:06:18.162Z,41.13
2022-08-24T20:08:48.495Z,34.75
2022-08-24T20:11:15.877Z,31.63
2022-08-24T20:13:43.138Z,29.60
2022-08-24T20:16:12.015Z,27.23
2022-08-24T20:18:39.578Z,26.73
2022-08-24T20:21:07.087Z,26.63
2022-08-24T20:23:34.404Z,28.13
2022-08-24T20:26:01.908Z,27.42
2022-08-24T20:28:38.215Z,29.45
2022-08-24T20:31:05.706Z,29.02
2022-08-24T20:33:32.924Z,28.05
2022-08-24T20:36:00.186Z,28.77
2022-08-24T20:38:29.343Z,30.58
2022-08-24T20:40:59.546Z,29.63
2022-08-24T20:43:26.716Z,30.40
2022-08-24T20:45:53.963Z,28.83
2022-08-24T20:48:30.903Z,29.48
2022-08-24T20:50:58.173Z,28.95
2022-08-24T20:53:26.756Z,28.13
2022-08-24T20:55:54.602Z,31.73
2022-08-24T20:58:22.051Z,29.92
2022-08-24T21:00:49.549Z,31.05
2022-08-24T21:03:18.760Z,33.78
2022-08-24T21:05:46.436Z,30.33
2022-08-24T21:08:13.642Z,28.05
2022-08-24T21:10:42.227Z,30.30
2022-08-24T21:13:09.429Z,26.08
2022-08-24T21:15:37.754Z,25.88
2022-08-24T21:18:05.282Z,29.63
2022-08-24T21:20:32.758Z,27.70
2022-08-24T21:23:00.007Z,27.40
2022-08-24T21:25:27.505Z,27.20
2022-08-24T21:27:54.671Z,27.58
2022-08-24T21:30:22.187Z,28.85
2022-08-24T21:33:08.218Z,27.95
2022-08-24T21:35:35.401Z,27.90
2022-08-24T21:38:02.557Z,25.70
2022-08-24T21:40:29.855Z,27.85
2022-08-24T21:42:57.070Z,27.10
2022-08-24T21:45:24.375Z,26.05
2022-08-24T21:47:51.631Z,26.77
2022-08-24T21:50:19.650Z,27.55
2022-08-24T21:52:53.937Z,23.55
2022-08-24T21:55:21.564Z,20.90
2022-08-24T21:57:48.748Z,26.30
2022-08-24T22:00:18.070Z,29.30
2022-08-24T22:02:45.253Z,27.48
2022-08-24T22:05:12.453Z,27.42
2022-08-24T22:07:39.643Z,25.88
2022-08-24T22:10:08.077Z,26.77
2022-08-24T22:12:35.991Z,24.20
2022-08-24T22:15:03.763Z,24.23
2022-08-24T22:17:31.043Z,23.58
2022-08-24T22:19:58.196Z,23.67
2022-08-24T22:22:25.574Z,24.45
2022-08-24T22:24:52.843Z,24.27
2022-08-24T22:27:20.840Z,23.45
2022-08-24T22:29:52.878Z,24.02
2022-08-24T22:32:20.190Z,18.80
2022-08-24T22:34:47.342Z,19.63
2022-08-24T22:37:14.535Z,21.75
2022-08-24T22:39:41.707Z,25.58
2022-08-24T22:42:08.935Z,23.88
2022-08-24T22:44:36.181Z,25.13
2022-08-24T22:47:03.839Z,26.30
2022-08-24T22:49:40.287Z,26.20
2022-08-24T22:52:08.487Z,27.65
2022-08-24T22:54:35.730Z,28.48
2022-08-24T22:57:03.004Z,28.63
2022-08-24T22:59:32.618Z,27.48
2022-08-24T23:01:59.834Z,26.95
2022-08-24T23:04:28.717Z,27.08
2022-08-24T23:06:55.955Z,27.80
2022-08-24T23:09:23.450Z,29.00
2022-08-24T23:11:52.329Z,28.33
2022-08-24T23:14:19.542Z,28.83
2022-08-24T23:16:50.093Z,27.75
2022-08-24T23:19:36.763Z,28.48
2022-08-24T23:22:04.481Z,26.67
2022-08-24T23:24:31.668Z,27.45
2022-08-24T23:26:58.860Z,27.33
2022-08-24T23:29:26.015Z,28.55
2022-08-24T23:31:53.897Z,28.25
2022-08-24T23:34:21.131Z,26.58
2022-08-24T23:36:48.504Z,26.90
2022-08-24T23:39:15.746Z,25.85
2022-08-24T23:41:44.324Z,26.25
2022-08-24T23:44:17.453Z,27.63
2022-08-24T23:46:44.826Z,26.60
2022-08-24T23:49:12.680Z,29.00
2022-08-24T23:51:39.866Z,28.75
2022-08-24T23:54:07.498Z,29.88
2022-08-24T23:56:35.448Z,31.27
2022-08-24T23:59:06.433Z,30.55
